createdAt,value
2023-01-20T00:00:36.762Z,8.87
2023-01-20T00:03:03.596Z,8.47
2023-01-20T00:05:30.395Z,10.47
2023-01-20T00:07:57.139Z,9.67
2023-01-20T00:10:24.194Z,8.87
2023-01-20T00:12:50.986Z,9.83
2023-01-20T00:15:17.901Z,9.37
2023-01-20T00:17:44.646Z,8.53
2023-01-20T00:20:12.222Z,10.70
2023-01-20T00:22:42.275Z,6.80
2023-01-20T00:25:12.419Z,8.07
2023-01-20T00:27:39.325Z,11.73
2023-01-20T00:30:06.797Z,10.60
2023-01-20T00:32:44.861Z,14.20
2023-01-20T00:35:12.718Z,12.70
2023-01-20T00:37:39.899Z,12.47
2023-01-20T00:40:07.339Z,9.83
2023-01-20T00:42:34.115Z,13.57
2023-01-20T00:45:00.879Z,10.97
2023-01-20T00:47:27.652Z,10.50
2023-01-20T00:49:54.423Z,11.80
2023-01-20T00:52:21.279Z,13.07
2023-01-20T00:54:48.120Z,13.30
2023-01-20T00:57:14.859Z,15.60
2023-01-20T00:59:41.651Z,11.57
2023-01-20T01:02:08.528Z,11.80
2023-01-20T01:04:35.417Z,15.93
2023-01-20T01:07:02.188Z,12.73
2023-01-20T01:09:28.990Z,13.43
2023-01-20T01:11:55.726Z,13.03
2023-01-20T01:14:22.546Z,15.23
2023-01-20T01:16:49.307Z,13.67
2023-01-20T01:19:18.697Z,13.20
2023-01-20T01:21:45.454Z,12.73
2023-01-20T01:24:12.174Z,11.70
2023-01-20T01:26:38.963Z,15.27
2023-01-20T01:29:05.746Z,15.77
2023-01-20T01:31:32.941Z,13.07
2023-01-20T01:33:59.720Z,15.53
2023-01-20T01:36:26.463Z,16.60
2023-01-20T01:38:58.674Z,15.20
2023-01-20T01:41:26.135Z,16.47
2023-01-20T01:44:22.419Z,13.63
2023-01-20T01:46:49.206Z,14.70
2023-01-20T01:49:45.396Z,14.07
2023-01-20T01:52:12.169Z,15.20
2023-01-20T01:54:43.594Z,13.07
2023-01-20T01:57:10.573Z,13.77
2023-01-20T01:59:38.743Z,17.53
2023-01-20T02:02:05.621Z,14.87
2023-01-20T02:04:33.854Z,13.33
2023-01-20T02:07:05.732Z,17.57
2023-01-20T02:09:33.170Z,17.60
2023-01-20T02:12:06.529Z,17.97
2023-01-20T02:14:47.193Z,15.77
2023-01-20T02:17:38.952Z,14.70
2023-01-20T02:20:43.020Z,21.33
2023-01-20T02:23:45.015Z,14.80
2023-01-20T02:26:45.895Z,13.23
2023-01-20T02:29:18.431Z,12.37
2023-01-20T02:32:12.651Z,17.90
2023-01-20T02:34:47.685Z,16.97
2023-01-20T02:37:18.450Z,14.30
2023-01-20T02:39:56.139Z,15.70
2023-01-20T02:42:27.728Z,16.93
2023-01-20T02:45:02.504Z,16.87
2023-01-20T02:48:01.036Z,15.10
2023-01-20T02:50:48.100Z,21.83
2023-01-20T02:53:16.810Z,18.67
2023-01-20T02:55:55.296Z,27.27
2023-01-20T02:58:45.460Z,23.47
2023-01-20T03:01:34.714Z,24.07
2023-01-20T03:04:04.095Z,25.37
2023-01-20T03:06:37.949Z,24.93
2023-01-20T03:09:10.023Z,20.97
2023-01-20T03:11:43.014Z,20.60
2023-01-20T03:14:13.363Z,18.20
2023-01-20T03:16:41.422Z,16.73
2023-01-20T03:19:09.627Z,24.03
2023-01-20T03:21:36.710Z,21.90
2023-01-20T03:24:05.033Z,27.40
2023-01-20T03:26:33.507Z,24.20
2023-01-20T03:29:06.933Z,22.53
2023-01-20T03:31:38.365Z,19.60
2023-01-20T03:34:11.099Z,19.10
2023-01-20T03:36:39.027Z,20.43
2023-01-20T03:39:06.267Z,18.13
2023-01-20T03:42:13.783Z,14.50
2023-01-20T03:44:49.443Z,14.67
2023-01-20T03:47:37.173Z,17.67
2023-01-20T03:50:03.895Z,14.13
2023-01-20T03:52:47.224Z,14.67
2023-01-20T03:55:28.591Z,15.50
2023-01-20T03:58:09.555Z,12.73
2023-01-20T04:00:41.504Z,16.53
2023-01-20T04:06:55.983Z,18.90
2023-01-20T04:09:27.664Z,15.80
2023-01-20T04:11:54.662Z,15.47
2023-01-20T04:14:21.480Z,14.90
2023-01-20T04:16:55.042Z,16.17
2023-01-20T04:19:22.631Z,14.73
2023-01-20T04:22:00.076Z,15.73
2023-01-20T04:24:33.116Z,15.17
2023-01-20T04:26:59.871Z,15.47
2023-01-20T04:29:26.613Z,15.03
2023-01-20T04:32:03.599Z,16.03
2023-01-20T04:34:30.648Z,13.83
2023-01-20T04:36:57.533Z,16.60
2023-01-20T04:39:24.311Z,16.87
2023-01-20T04:41:51.219Z,17.07
2023-01-20T04:44:17.975Z,21.97
2023-01-20T04:46:47.325Z,15.13
2023-01-20T04:49:14.985Z,19.23
2023-01-20T04:51:46.600Z,17.37
2023-01-20T04:54:13.364Z,15.53
2023-01-20T04:56:40.189Z,16.10
2023-01-20T04:59:06.968Z,14.07
2023-01-20T05:01:33.913Z,17.93
2023-01-20T05:04:00.750Z,19.73
2023-01-20T05:06:27.528Z,21.33
2023-01-20T05:08:54.270Z,18.93
2023-01-20T05:11:21.020Z,21.03
2023-01-20T05:13:47.780Z,23.73
2023-01-20T05:16:14.623Z,18.53
2023-01-20T05:18:41.438Z,19.13
2023-01-20T05:21:08.870Z,18.03
2023-01-20T05:23:36.245Z,19.40
2023-01-20T05:26:03.103Z,19.07
2023-01-20T05:28:29.837Z,21.40
2023-01-20T05:30:56.756Z,20.90
2023-01-20T05:33:23.653Z,19.07
2023-01-20T05:35:50.435Z,16.97
2023-01-20T05:38:17.211Z,17.73
2023-01-20T05:40:44.056Z,23.00
2023-01-20T05:43:12.943Z,19.33
2023-01-20T05:45:44.326Z,17.93
2023-01-20T05:48:11.792Z,19.37
2023-01-20T05:50:38.519Z,20.00
2023-01-20T05:53:05.265Z,17.17
2023-01-20T05:55:32.021Z,18.30
2023-01-20T05:58:02.265Z,15.87
2023-01-20T06:00:44.137Z,17.37
2023-01-20T06:03:10.972Z,15.57
2023-01-20T06:05:37.735Z,20.00
2023-01-20T06:08:04.670Z,22.67
2023-01-20T06:10:31.407Z,16.80
2023-01-20T06:12:58.145Z,22.60
2023-01-20T06:15:25.386Z,19.97
2023-01-20T06:17:52.872Z,22.17
2023-01-20T06:20:19.808Z,21.77
2023-01-20T06:22:46.584Z,21.27
2023-01-20T06:25:13.733Z,21.97
2023-01-20T06:27:40.596Z,19.77
2023-01-20T06:30:08.098Z,24.30
2023-01-20T06:32:34.971Z,21.83
2023-01-20T06:35:01.844Z,20.90
2023-01-20T06:37:28.687Z,19.93
2023-01-20T06:39:55.417Z,21.47
2023-01-20T06:42:22.207Z,19.47
2023-01-20T06:44:49.045Z,18.80
2023-01-20T06:47:15.795Z,18.20
2023-01-20T06:49:42.536Z,22.33
2023-01-20T06:52:09.740Z,18.43
2023-01-20T06:54:36.551Z,18.60
2023-01-20T06:57:03.425Z,20.27
2023-01-20T06:59:30.162Z,18.63
2023-01-20T07:01:57.035Z,21.23
2023-01-20T07:04:23.908Z,18.60
2023-01-20T07:06:50.643Z,18.20
2023-01-20T07:09:17.644Z,22.30
2023-01-20T07:11:44.537Z,18.43
2023-01-20T07:14:11.386Z,15.70
2023-01-20T07:16:38.299Z,16.03
2023-01-20T07:19:05.282Z,18.37
2023-01-20T07:21:32.133Z,17.73
2023-01-20T07:24:02.383Z,17.30
2023-01-20T07:26:29.795Z,17.87
2023-01-20T07:28:58.867Z,16.50
2023-01-20T07:31:28.171Z,16.80
2023-01-20T07:33:56.258Z,15.30
2023-01-20T07:36:23.465Z,16.43
2023-01-20T07:38:51.264Z,13.67
2023-01-20T07:41:19.914Z,16.60
2023-01-20T07:43:49.377Z,18.90
2023-01-20T07:46:16.468Z,17.73
2023-01-20T07:48:43.661Z,16.97
2023-01-20T07:51:13.021Z,13.43
2023-01-20T07:53:43.550Z,13.57
2023-01-20T07:56:13.144Z,13.17
2023-01-20T07:58:39.937Z,15.50
2023-01-20T08:01:14.909Z,15.03
2023-01-20T08:03:42.427Z,16.67
2023-01-20T08:06:11.373Z,20.03
2023-01-20T08:08:38.452Z,18.57
2023-01-20T08:11:07.354Z,16.77
2023-01-20T08:13:34.713Z,17.37
2023-01-20T08:16:07.473Z,16.20
2023-01-20T08:18:35.434Z,20.13
2023-01-20T08:21:06.507Z,19.53
2023-01-20T08:23:33.928Z,18.00
2023-01-20T08:26:02.966Z,17.53
2023-01-20T08:28:30.810Z,17.83
2023-01-20T08:31:16.012Z,13.63
2023-01-20T08:33:43.296Z,14.23
2023-01-20T08:36:16.518Z,18.90
2023-01-20T08:38:44.208Z,20.60
2023-01-20T08:41:14.839Z,21.37
2023-01-20T08:43:42.568Z,22.57
2023-01-20T08:46:12.173Z,15.37
2023-01-20T08:48:40.745Z,16.50
2023-01-20T08:51:10.664Z,29.83
2023-01-20T08:53:37.546Z,26.63
2023-01-20T08:56:04.625Z,22.90
2023-01-20T08:58:31.547Z,22.83
2023-01-20T09:00:58.838Z,21.53
2023-01-20T09:03:26.316Z,19.83
2023-01-20T09:05:53.141Z,17.23
2023-01-20T09:08:20.769Z,17.70
2023-01-20T09:10:47.590Z,17.17
2023-01-20T09:13:14.546Z,16.23
2023-01-20T09:15:41.396Z,17.33
2023-01-20T09:18:08.331Z,15.23
2023-01-20T09:20:35.095Z,13.57
2023-01-20T09:23:02.945Z,11.77
2023-01-20T09:25:29.773Z,11.53
2023-01-20T09:27:59.615Z,13.07
2023-01-20T09:30:26.402Z,10.67
2023-01-20T09:32:55.374Z,12.83
2023-01-20T09:35:22.252Z,11.87
2023-01-20T09:38:07.615Z,10.30
2023-01-20T09:41:10.395Z,12.67
2023-01-20T09:43:56.121Z,8.83
2023-01-20T09:46:35.184Z,11.20
2023-01-20T09:49:48.172Z,11.07
2023-01-20T09:52:47.982Z,7.83
2023-01-20T09:55:21.436Z,8.47
2023-01-20T09:57:59.058Z,7.90
2023-01-20T10:00:29.781Z,8.20
2023-01-20T10:03:04.468Z,6.60
2023-01-20T10:05:37.800Z,7.67
2023-01-20T10:08:24.623Z,11.13
2023-01-20T10:11:06.301Z,7.97
2023-01-20T10:13:47.186Z,6.60
2023-01-20T10:16:25.470Z,8.00
2023-01-20T10:18:59.428Z,7.57
2023-01-20T10:21:36.675Z,5.53
2023-01-20T10:24:22.833Z,5.57
2023-01-20T10:26:54.778Z,6.73
2023-01-20T10:29:34.339Z,6.30
2023-01-20T10:32:04.306Z,7.47
2023-01-20T10:34:38.881Z,6.40
2023-01-20T10:37:09.016Z,5.43
2023-01-20T10:39:54.743Z,5.17
2023-01-20T10:42:22.900Z,4.60
2023-01-20T10:44:51.049Z,4.63
2023-01-20T10:47:35.966Z,3.30
2023-01-20T10:50:12.180Z,4.40
2023-01-20T10:52:45.072Z,5.90
2023-01-20T10:55:18.882Z,6.37
2023-01-20T10:57:54.860Z,5.27
2023-01-20T11:00:28.714Z,3.23
2023-01-20T11:02:59.218Z,4.30
2023-01-20T11:05:29.295Z,5.93
2023-01-20T11:07:58.358Z,5.50
2023-01-20T11:10:33.021Z,4.57
2023-01-20T11:13:02.308Z,4.40
2023-01-20T11:15:35.703Z,3.23
2023-01-20T11:18:14.808Z,4.47
2023-01-20T11:20:54.130Z,4.33
2023-01-20T11:23:40.891Z,4.43
2023-01-20T11:26:12.013Z,4.43
2023-01-20T11:28:57.363Z,4.50
2023-01-20T11:31:55.139Z,3.60
2023-01-20T11:34:25.818Z,3.30
2023-01-20T11:37:16.160Z,2.80
2023-01-20T11:40:17.521Z,4.93
2023-01-20T11:42:46.459Z,3.07
2023-01-20T11:45:26.702Z,4.10
2023-01-20T11:48:02.615Z,7.20
2023-01-20T11:50:42.036Z,5.13
2023-01-20T11:53:22.214Z,5.43
2023-01-20T11:56:02.112Z,6.00
2023-01-20T11:58:33.458Z,3.83
2023-01-20T12:01:07.922Z,3.97
2023-01-20T12:03:34.675Z,5.43
2023-01-20T12:06:05.923Z,4.73
2023-01-20T12:08:51.026Z,5.73
2023-01-20T12:11:35.371Z,4.97
2023-01-20T12:14:30.540Z,5.27
2023-01-20T12:17:03.393Z,5.37
2023-01-20T12:19:44.081Z,5.83
2023-01-20T12:22:15.809Z,4.83
2023-01-20T12:25:08.032Z,5.40
2023-01-20T12:27:43.120Z,5.10
2023-01-20T12:30:35.980Z,7.10
2023-01-20T12:33:03.207Z,6.83
2023-01-20T12:35:36.083Z,5.83
2023-01-20T12:38:08.116Z,5.93
2023-01-20T12:40:46.608Z,6.30
2023-01-20T12:43:28.572Z,8.63
2023-01-20T12:46:13.569Z,5.57
2023-01-20T12:48:55.403Z,6.13
2023-01-20T12:51:31.308Z,7.90
2023-01-20T12:54:23.875Z,7.50
2023-01-20T12:57:16.457Z,5.97
2023-01-20T13:00:20.790Z,5.63
2023-01-20T13:03:25.268Z,4.43
2023-01-20T13:06:31.188Z,6.53
2023-01-20T13:09:23.792Z,7.60
2023-01-20T13:12:09.399Z,5.33
2023-01-20T13:14:41.296Z,6.47
2023-01-20T13:17:28.320Z,6.57
2023-01-20T13:19:59.151Z,4.73
2023-01-20T13:22:26.493Z,5.63
2023-01-20T13:24:57.379Z,4.47
2023-01-20T13:27:35.622Z,7.00
2023-01-20T13:30:06.053Z,6.13
2023-01-20T13:32:36.868Z,7.57
2023-01-20T13:35:24.206Z,6.40
2023-01-20T13:37:53.380Z,6.23
2023-01-20T13:40:38.548Z,6.50
2023-01-20T13:43:28.149Z,7.20
2023-01-20T13:46:07.172Z,7.73
2023-01-20T13:48:36.177Z,7.50
2023-01-20T13:51:21.765Z,5.50
2023-01-20T13:53:48.554Z,5.63
2023-01-20T13:56:30.540Z,6.13
2023-01-20T13:59:00.175Z,5.23
2023-01-20T14:01:28.220Z,8.43
2023-01-20T14:04:06.401Z,6.23
2023-01-20T14:06:35.650Z,8.33
2023-01-20T14:09:03.873Z,5.87
2023-01-20T14:11:31.349Z,7.00
2023-01-20T14:14:07.071Z,7.97
2023-01-20T14:16:33.875Z,4.60
2023-01-20T14:19:14.339Z,4.93
2023-01-20T14:21:41.915Z,5.37
2023-01-20T14:24:32.678Z,6.67
2023-01-20T14:27:07.518Z,5.60
2023-01-20T14:29:34.269Z,6.80
2023-01-20T14:32:01.087Z,5.17
2023-01-20T14:34:33.120Z,4.47
2023-01-20T14:37:16.870Z,5.10
2023-01-20T14:39:48.777Z,4.13
2023-01-20T14:42:21.113Z,5.40
2023-01-20T14:44:49.621Z,6.57
2023-01-20T14:47:17.050Z,8.63
2023-01-20T14:49:46.864Z,6.40
2023-01-20T14:52:26.217Z,7.17
2023-01-20T14:54:56.168Z,6.23
2023-01-20T14:57:32.905Z,5.03
2023-01-20T15:00:16.979Z,4.70
2023-01-20T15:03:05.209Z,4.07
2023-01-20T15:05:38.649Z,4.33
2023-01-20T15:08:05.377Z,4.87
2023-01-20T15:10:32.500Z,3.63
2023-01-20T15:12:59.598Z,3.93
2023-01-20T15:15:32.054Z,3.23
2023-01-20T15:18:22.339Z,3.10
2023-01-20T15:21:15.620Z,3.57
2023-01-20T15:23:45.697Z,3.60
2023-01-20T15:26:24.067Z,4.67
2023-01-20T15:28:50.851Z,4.60
2023-01-20T15:31:17.990Z,5.77
2023-01-20T15:33:44.958Z,5.73
2023-01-20T15:36:20.587Z,8.33
2023-01-20T15:38:47.428Z,5.60
2023-01-20T15:41:14.702Z,5.90
2023-01-20T15:43:42.473Z,3.63
2023-01-20T15:46:13.713Z,4.27
2023-01-20T15:48:40.872Z,3.17
2023-01-20T15:51:14.104Z,3.00
2023-01-20T15:53:41.329Z,2.73
2023-01-20T15:56:29.807Z,3.37
2023-01-20T15:58:57.250Z,2.87
2023-01-20T16:01:26.137Z,3.63
2023-01-20T16:03:56.754Z,4.10
2023-01-20T16:06:29.410Z,3.60
2023-01-20T16:08:56.781Z,3.20
2023-01-20T16:11:23.818Z,3.33
2023-01-20T16:13:50.608Z,2.77
2023-01-20T16:16:19.477Z,3.43
2023-01-20T16:18:47.199Z,3.13
2023-01-20T16:21:16.259Z,3.33
2023-01-20T16:23:43.364Z,4.23
2023-01-20T16:26:24.872Z,3.83
2023-01-20T16:28:53.794Z,2.57
2023-01-20T16:31:21.114Z,3.23
2023-01-20T16:33:48.152Z,3.10
2023-01-20T16:36:17.447Z,2.83
2023-01-20T16:38:45.155Z,2.27
2023-01-20T16:41:26.256Z,4.43
2023-01-20T16:43:54.541Z,2.50
2023-01-20T16:46:24.167Z,2.73
2023-01-20T16:48:51.827Z,2.83
2023-01-20T16:51:25.677Z,2.67
2023-01-20T16:53:53.370Z,3.23
2023-01-20T16:56:22.718Z,4.93
2023-01-20T16:58:51.707Z,2.73
2023-01-20T17:01:24.737Z,3.63
2023-01-20T17:04:00.796Z,4.20
2023-01-20T17:06:30.170Z,3.33
2023-01-20T17:08:59.014Z,4.70
2023-01-20T17:11:26.857Z,3.23
2023-01-20T17:13:55.090Z,3.90
2023-01-20T17:16:22.828Z,4.30
2023-01-20T17:18:51.611Z,5.47
2023-01-20T17:21:21.445Z,3.60
2023-01-20T17:23:52.943Z,4.27
2023-01-20T17:26:20.660Z,5.27
2023-01-20T17:28:47.910Z,6.80
2023-01-20T17:31:14.998Z,4.87
2023-01-20T17:33:48.213Z,4.53
2023-01-20T17:36:19.312Z,4.00
2023-01-20T17:38:46.767Z,6.37
2023-01-20T17:41:14.400Z,5.47
2023-01-20T17:43:44.209Z,5.57
2023-01-20T17:46:19.700Z,3.77
2023-01-20T17:48:47.240Z,4.77
2023-01-20T17:51:24.135Z,5.83
2023-01-20T17:53:51.547Z,4.90
2023-01-20T17:56:20.140Z,7.30
2023-01-20T17:58:48.247Z,4.47
2023-01-20T18:01:20.126Z,6.17
2023-01-20T18:03:49.682Z,4.90
2023-01-20T18:06:18.901Z,5.10
2023-01-20T18:08:51.584Z,5.37
2023-01-20T18:11:21.743Z,5.60
2023-01-20T18:13:55.305Z,6.77
2023-01-20T18:16:24.107Z,5.07
2023-01-20T18:18:51.080Z,5.90
2023-01-20T18:21:23.704Z,4.67
2023-01-20T18:23:51.274Z,7.07
2023-01-20T18:26:22.914Z,4.50
2023-01-20T18:28:53.266Z,5.70
2023-01-20T18:31:21.640Z,10.57
2023-01-20T18:33:51.587Z,11.97
2023-01-20T18:36:23.982Z,12.90
2023-01-20T18:38:51.986Z,8.83
2023-01-20T18:41:19.191Z,8.90
2023-01-20T18:43:46.947Z,12.10
2023-01-20T18:46:14.268Z,9.50
2023-01-20T18:48:42.414Z,12.03
2023-01-20T18:51:12.131Z,10.87
2023-01-20T18:53:38.942Z,11.47
2023-01-20T18:56:08.700Z,12.97
2023-01-20T18:58:38.386Z,14.33
2023-01-20T19:01:07.226Z,13.03
2023-01-20T19:03:34.863Z,15.40
2023-01-20T19:06:11.141Z,16.50
2023-01-20T19:08:38.962Z,14.97
2023-01-20T19:11:08.894Z,14.57
2023-01-20T19:13:36.255Z,15.13
2023-01-20T19:16:03.113Z,17.70
2023-01-20T19:18:30.045Z,15.77
2023-01-20T19:21:02.630Z,15.60
2023-01-20T19:23:29.385Z,15.90
2023-01-20T19:26:04.061Z,14.33
2023-01-20T19:28:31.111Z,15.20
2023-01-20T19:31:24.385Z,16.80
2023-01-20T19:33:51.477Z,18.67
2023-01-20T19:36:19.131Z,16.07
2023-01-20T19:38:46.676Z,17.87
2023-01-20T19:41:19.139Z,17.23
2023-01-20T19:43:46.358Z,15.50
2023-01-20T19:46:15.654Z,18.83
2023-01-20T19:48:43.296Z,15.40
2023-01-20T19:51:12.547Z,14.33
2023-01-20T19:53:40.238Z,15.13
2023-01-20T19:56:18.663Z,16.13
2023-01-20T19:58:46.991Z,15.17
2023-01-20T20:01:18.266Z,14.50
2023-01-20T20:03:45.735Z,16.40
2023-01-20T20:06:28.657Z,23.87
2023-01-20T20:09:04.540Z,19.07
2023-01-20T20:11:32.066Z,18.70
2023-01-20T20:14:01.758Z,17.30
2023-01-20T20:16:31.502Z,16.57
2023-01-20T20:18:59.459Z,16.27
2023-01-20T20:21:27.313Z,17.67
2023-01-20T20:23:59.341Z,17.17
2023-01-20T20:26:29.129Z,19.03
2023-01-20T20:28:58.093Z,17.80
2023-01-20T20:31:29.302Z,18.63
2023-01-20T20:33:58.216Z,24.07
2023-01-20T20:36:28.199Z,24.67
2023-01-20T20:38:55.454Z,20.17
2023-01-20T20:41:22.414Z,24.13
2023-01-20T20:43:49.127Z,21.47
2023-01-20T20:46:16.605Z,22.17
2023-01-20T20:48:43.377Z,25.00
2023-01-20T20:51:13.551Z,22.00
2023-01-20T20:53:40.640Z,23.03
2023-01-20T20:56:09.541Z,22.87
2023-01-20T20:58:45.659Z,23.70
2023-01-20T21:01:22.294Z,23.77
2023-01-20T21:03:49.077Z,24.93
2023-01-20T21:06:16.441Z,22.37
2023-01-20T21:08:43.334Z,28.37
2023-01-20T21:11:12.995Z,28.83
2023-01-20T21:13:40.523Z,23.77
2023-01-20T21:16:13.818Z,24.73
2023-01-20T21:18:41.606Z,21.43
2023-01-20T21:21:12.256Z,20.93
2023-01-20T21:23:40.635Z,19.97
2023-01-20T21:26:10.385Z,15.33
2023-01-20T21:28:37.571Z,16.27
2023-01-20T21:31:10.071Z,17.63
2023-01-20T21:33:41.437Z,14.97
2023-01-20T21:36:09.809Z,16.63
2023-01-20T21:38:37.443Z,14.47
2023-01-20T21:41:10.004Z,14.90
2023-01-20T21:44:03.293Z,13.53
2023-01-20T21:46:39.208Z,16.73
2023-01-20T21:49:26.141Z,14.47
2023-01-20T21:52:12.079Z,12.33
2023-01-20T21:54:41.748Z,13.40
2023-01-20T21:57:08.923Z,14.10
2023-01-20T21:59:35.948Z,15.53
2023-01-20T22:02:02.785Z,17.97
2023-01-20T22:04:29.520Z,15.60
2023-01-20T22:06:56.286Z,14.70
2023-01-20T22:09:23.241Z,13.20
2023-01-20T22:11:50.279Z,14.17
2023-01-20T22:14:17.159Z,14.67
2023-01-20T22:16:44.076Z,13.63
2023-01-20T22:19:14.324Z,13.23
2023-01-20T22:21:41.802Z,15.17
2023-01-20T22:24:09.697Z,12.00
2023-01-20T22:26:36.934Z,15.23
2023-01-20T22:29:03.840Z,18.60
2023-01-20T22:31:31.934Z,14.47
2023-01-20T22:34:04.142Z,12.47
2023-01-20T22:36:31.137Z,13.87
2023-01-20T22:38:57.895Z,14.10
2023-01-20T22:41:24.916Z,13.03
2023-01-20T22:43:51.899Z,14.30
2023-01-20T22:46:20.936Z,13.27
2023-01-20T22:48:48.049Z,13.87
2023-01-20T22:51:17.621Z,11.90
2023-01-20T22:53:44.672Z,13.67
2023-01-20T22:56:19.982Z,10.47
2023-01-20T22:58:47.229Z,11.20
2023-01-20T23:01:18.927Z,13.50
2023-01-20T23:03:46.285Z,11.13
2023-01-20T23:06:14.180Z,11.93
2023-01-20T23:08:41.815Z,12.80
2023-01-20T23:11:15.610Z,11.43
2023-01-20T23:13:42.876Z,11.93
2023-01-20T23:16:22.207Z,11.93
2023-01-20T23:18:50.921Z,13.73
2023-01-20T23:21:18.188Z,12.33
2023-01-20T23:23:45.385Z,11.40
2023-01-20T23:26:18.840Z,10.80
2023-01-20T23:28:47.047Z,10.90
2023-01-20T23:31:15.999Z,11.53
2023-01-20T23:33:44.031Z,11.40
2023-01-20T23:36:14.046Z,12.63
2023-01-20T23:38:41.147Z,14.27
2023-01-20T23:41:08.173Z,12.13
2023-01-20T23:43:34.950Z,11.70
2023-01-20T23:46:04.857Z,10.43
2023-01-20T23:48:32.195Z,8.87
2023-01-20T23:51:02.605Z,13.07
2023-01-20T23:53:31.445Z,15.70
2023-01-20T23:56:02.982Z,17.23
2023-01-20T23:58:30.091Z,15.17
